Terminal Aerodrome Forecast
Issued by NWS

Home | Current Version | Previous Version | Text Only | Print | Product List | Glossary On
Versions: 1 2 3 4 5 6 7 8 9 10 11 12 13 14 15 16 17 18 19
000
FTUS43 KEAX 042320
TAFMKC
TAF
KMKC 042320Z 0500/0524 19010KT P6SM -SHRA VCTS SCT050CB BKN100
     FM050200 16007KT P6SM SCT150
     FM051000 14005KT P6SM VCTS BKN040CB
     FM051400 15008KT P6SM SCT050=

USA.gov is the U.S. government's official web portal to all federal, state and local government web resources and services.